KGSO

Piedmont Triad International Airport

Greensboro, North Carolina, USA
METAR KGSO 190254Z 28009KT 10SM CLR M01/M07 A3022 RMK AO2 SLP243 T10061067 53013
Observed Flight Rules
Jan-19 @ 02:54 UTC (56 minutes ago) Visual Flight Rules
Wind Visibility Clouds
280° at 9 knots 10 miles
  • Clear skies
Temperatures Readings
Current -1°C / 30°F
Dewpoint -7°C / 19°F
Humidity 64%
Altimeter 30.22" Hg
Pressure 1024.3 hPa
Elevation 275
METAR KGSO 190254Z 28009KT 10SM CLR M01/M07 A3022 RMK AO2 SLP243 T10061067 53013
Observed Flight Rules
Jan-19 @ 02:54 UTC
(56 minutes ago)
VFR
Wind Visibility
280° at 9 knots 10 miles
Clouds
  • Clear skies
Temperature Dewpoint
-1°C / 30°F -7°C / 19°F
Humidity Altimeter Pressure
64% 30.22" Hg 1024.3 hPa